Airfield :
LOGIN :

Register | Disclaimer

   EN    FR    IT 

 










Legend :    VFR   Marginal VFR   IFR   Intensive IFR   Very Intensive IFR
Visi :
Ceiling :
>= 8 km
>= 3000ft
5 to 8 km
1000 to 3000 ft
1500m to 5 km
500 to 1000 ft
800 to 1500m
200 to 500 ft
< 800m
< 200 ft
Symbols :   Thunderstorms  Fog  Heavy snow  Heavy precipitations  Wind > 20 kt
SIGMETs :     Misc.  Thunderstorms  Icing  Turbulence  Mountain Waves  Volcanic Ashes






- Airport Elevation : 425 ft
- IATA code : DTM


EDLW - Dortmund

CURRENT METAR :
  • 051950Z 36009KT 9999 FEW018 BKN021 05/02 Q1039

EXPIRED METARs :
  • 051920Z 35006KT 9999 FEW016 OVC019 05/03 Q1039
  • 051850Z 03004KT 9999 OVC019 05/04 Q1039
  • 051820Z 02006KT 9999 OVC020 05/03 Q1039
  • 051750Z 01009KT 9999 FEW015 BKN020 05/03 Q1038
  • 051720Z 36011KT 9999 -RA SCT012 BKN018 05/04 Q1038

TAF TAF EDLW
Valid from the 05 at 18:00 until the 06 at 18:00 UTC


051700Z 0518/0618 35005KT 9999 SCT010 BKN020
TEMPO 0518/0522 BKN012
PROB30
TEMPO 0518/0522 4000 -DZ BR BKN008
BECMG 0520/0523 VRB03KT
BECMG 0605/0608 BKN007
TEMPO 0608/0611 4000 BR BKN004
BECMG 0610/0613 04006KT
BECMG 0612/0615 BKN020



MET'MAP, your aeronautical weather chart ! - Copyright ORBIFLY December 2007 - Disclaimer

ORBIFLY MET'MAP TEAM :

Programming & Development : Alexandra Zaïnal
Original concept : Baudouin d'Aumeries
Technical & hardware support : Manuel Goepfert
Assistance : Marc-Olivier Méhu




SOURCES & CREDITS :

   NOAA